sensor_id;sensor_type;location;lat;lon;timestamp;P1;durP1;ratioP1;P2;durP2;ratioP2
3131;SDS011;62090;52.330;9.104;2024-03-02T00:02:25;11.20;;;8.03;;
3131;SDS011;62090;52.330;9.104;2024-03-02T00:04:55;12.87;;;9.07;;
3131;SDS011;62090;52.330;9.104;2024-03-02T00:07:25;11.23;;;8.00;;
3131;SDS011;62090;52.330;9.104;2024-03-02T00:09:58;13.03;;;8.33;;
3131;SDS011;62090;52.330;9.104;2024-03-02T00:12:28;13.23;;;8.73;;
3131;SDS011;62090;52.330;9.104;2024-03-02T00:14:59;12.60;;;8.93;;
3131;SDS011;62090;52.330;9.104;2024-03-02T00:17:29;13.57;;;8.67;;
3131;SDS011;62090;52.330;9.104;2024-03-02T00:19:59;13.67;;;8.57;;
3131;SDS011;62090;52.330;9.104;2024-03-02T00:22:29;13.60;;;9.00;;
3131;SDS011;62090;52.330;9.104;2024-03-02T00:25:02;13.60;;;9.13;;
3131;SDS011;62090;52.330;9.104;2024-03-02T00:27:35;13.20;;;9.67;;
3131;SDS011;62090;52.330;9.104;2024-03-02T00:30:06;13.57;;;9.60;;
3131;SDS011;62090;52.330;9.104;2024-03-02T00:33:04;17.47;;;10.43;;
3131;SDS011;62090;52.330;9.104;2024-03-02T00:35:36;17.70;;;11.07;;
3131;SDS011;62090;52.330;9.104;2024-03-02T00:38:06;13.20;;;9.47;;
3131;SDS011;62090;52.330;9.104;2024-03-02T00:40:39;26.57;;;14.50;;
3131;SDS011;62090;52.330;9.104;2024-03-02T00:43:11;17.67;;;12.03;;
3131;SDS011;62090;52.330;9.104;2024-03-02T00:46:04;19.17;;;11.47;;
3131;SDS011;62090;52.330;9.104;2024-03-02T00:48:34;14.10;;;10.30;;
3131;SDS011;62090;52.330;9.104;2024-03-02T00:51:05;13.83;;;9.80;;
3131;SDS011;62090;52.330;9.104;2024-03-02T00:53:35;13.07;;;9.30;;
3131;SDS011;62090;52.330;9.104;2024-03-02T00:56:09;12.97;;;9.70;;
3131;SDS011;62090;52.330;9.104;2024-03-02T00:58:41;12.93;;;9.30;;
3131;SDS011;62090;52.330;9.104;2024-03-02T01:01:14;13.23;;;9.33;;
3131;SDS011;62090;52.330;9.104;2024-03-02T01:03:45;14.10;;;8.93;;
3131;SDS011;62090;52.330;9.104;2024-03-02T01:06:16;13.37;;;9.43;;
3131;SDS011;62090;52.330;9.104;2024-03-02T01:08:46;14.03;;;9.93;;
3131;SDS011;62090;52.330;9.104;2024-03-02T01:11:22;27.60;;;16.97;;
3131;SDS011;62090;52.330;9.104;2024-03-02T01:13:52;18.10;;;13.77;;
3131;SDS011;62090;52.330;9.104;2024-03-02T01:16:22;16.50;;;10.20;;
3131;SDS011;62090;52.330;9.104;2024-03-02T01:18:52;16.40;;;10.17;;
3131;SDS011;62090;52.330;9.104;2024-03-02T01:21:22;11.17;;;8.30;;
3131;SDS011;62090;52.330;9.104;2024-03-02T01:23:52;12.10;;;9.30;;
3131;SDS011;62090;52.330;9.104;2024-03-02T01:26:25;12.53;;;8.30;;
3131;SDS011;62090;52.330;9.104;2024-03-02T01:28:55;14.83;;;8.90;;
3131;SDS011;62090;52.330;9.104;2024-03-02T01:31:25;20.33;;;14.07;;
3131;SDS011;62090;52.330;9.104;2024-03-02T01:33:55;15.33;;;8.90;;
3131;SDS011;62090;52.330;9.104;2024-03-02T01:36:25;13.87;;;8.50;;
3131;SDS011;62090;52.330;9.104;2024-03-02T01:38:55;14.20;;;9.53;;
3131;SDS011;62090;52.330;9.104;2024-03-02T01:41:28;13.37;;;9.13;;
3131;SDS011;62090;52.330;9.104;2024-03-02T01:43:58;13.67;;;9.67;;
3131;SDS011;62090;52.330;9.104;2024-03-02T01:46:28;12.50;;;8.10;;
3131;SDS011;62090;52.330;9.104;2024-03-02T01:48:58;12.77;;;8.37;;
3131;SDS011;62090;52.330;9.104;2024-03-02T01:51:29;11.80;;;8.17;;
3131;SDS011;62090;52.330;9.104;2024-03-02T01:53:59;13.83;;;9.13;;
3131;SDS011;62090;52.330;9.104;2024-03-02T01:56:31;17.47;;;9.67;;
3131;SDS011;62090;52.330;9.104;2024-03-02T01:59:01;11.93;;;8.33;;
3131;SDS011;62090;52.330;9.104;2024-03-02T02:01:32;10.83;;;7.80;;
3131;SDS011;62090;52.330;9.104;2024-03-02T02:04:02;10.83;;;8.17;;
3131;SDS011;62090;52.330;9.104;2024-03-02T02:06:33;12.53;;;8.00;;
3131;SDS011;62090;52.330;9.104;2024-03-02T02:09:03;12.00;;;8.60;;
3131;SDS011;62090;52.330;9.104;2024-03-02T02:11:37;9.87;;;7.13;;
3131;SDS011;62090;52.330;9.104;2024-03-02T02:14:07;10.77;;;7.60;;
3131;SDS011;62090;52.330;9.104;2024-03-02T02:16:38;10.70;;;8.10;;
3131;SDS011;62090;52.330;9.104;2024-03-02T02:19:08;13.13;;;8.47;;
3131;SDS011;62090;52.330;9.104;2024-03-02T02:21:44;9.20;;;7.30;;
3131;SDS011;62090;52.330;9.104;2024-03-02T02:24:14;11.20;;;7.67;;
3131;SDS011;62090;52.330;9.104;2024-03-02T02:26:44;9.77;;;7.30;;
3131;SDS011;62090;52.330;9.104;2024-03-02T02:29:14;11.73;;;7.30;;
3131;SDS011;62090;52.330;9.104;2024-03-02T02:31:44;12.37;;;8.00;;
3131;SDS011;62090;52.330;9.104;2024-03-02T02:34:14;22.30;;;7.20;;
3131;SDS011;62090;52.330;9.104;2024-03-02T02:36:47;11.60;;;7.60;;
3131;SDS011;62090;52.330;9.104;2024-03-02T02:39:18;11.97;;;8.70;;
3131;SDS011;62090;52.330;9.104;2024-03-02T02:41:51;12.53;;;8.83;;
3131;SDS011;62090;52.330;9.104;2024-03-02T02:44:21;12.20;;;8.87;;
3131;SDS011;62090;52.330;9.104;2024-03-02T02:46:51;11.60;;;8.23;;
3131;SDS011;62090;52.330;9.104;2024-03-02T02:49:21;11.77;;;8.30;;
3131;SDS011;62090;52.330;9.104;2024-03-02T02:51:53;11.63;;;8.70;;
3131;SDS011;62090;52.330;9.104;2024-03-02T02:54:23;12.77;;;7.30;;
3131;SDS011;62090;52.330;9.104;2024-03-02T02:56:53;11.20;;;8.60;;
3131;SDS011;62090;52.330;9.104;2024-03-02T02:59:23;12.17;;;7.70;;
3131;SDS011;62090;52.330;9.104;2024-03-02T03:01:53;10.93;;;7.70;;
3131;SDS011;62090;52.330;9.104;2024-03-02T03:04:23;13.43;;;7.93;;
3131;SDS011;62090;52.330;9.104;2024-03-02T03:06:56;12.30;;;8.63;;
3131;SDS011;62090;52.330;9.104;2024-03-02T03:09:26;10.83;;;7.90;;
3131;SDS011;62090;52.330;9.104;2024-03-02T03:11:56;11.57;;;8.20;;
3131;SDS011;62090;52.330;9.104;2024-03-02T03:14:26;15.67;;;8.93;;
3131;SDS011;62090;52.330;9.104;2024-03-02T03:16:56;12.90;;;8.83;;
3131;SDS011;62090;52.330;9.104;2024-03-02T03:19:26;13.47;;;8.03;;
3131;SDS011;62090;52.330;9.104;2024-03-02T03:21:59;11.80;;;8.20;;
3131;SDS011;62090;52.330;9.104;2024-03-02T03:24:30;10.77;;;8.13;;
3131;SDS011;62090;52.330;9.104;2024-03-02T03:27:00;14.73;;;9.60;;
3131;SDS011;62090;52.330;9.104;2024-03-02T03:29:30;16.90;;;9.70;;
3131;SDS011;62090;52.330;9.104;2024-03-02T03:32:00;12.27;;;8.67;;
3131;SDS011;62090;52.330;9.104;2024-03-02T03:34:32;13.80;;;9.83;;
3131;SDS011;62090;52.330;9.104;2024-03-02T03:37:05;14.77;;;10.20;;
3131;SDS011;62090;52.330;9.104;2024-03-02T03:39:35;13.93;;;9.70;;
3131;SDS011;62090;52.330;9.104;2024-03-02T03:42:05;15.00;;;9.30;;
3131;SDS011;62090;52.330;9.104;2024-03-02T03:44:35;13.83;;;10.20;;
3131;SDS011;62090;52.330;9.104;2024-03-02T03:47:06;20.37;;;10.60;;
3131;SDS011;62090;52.330;9.104;2024-03-02T03:49:36;16.57;;;11.03;;
3131;SDS011;62090;52.330;9.104;2024-03-02T03:52:08;16.30;;;11.20;;
3131;SDS011;62090;52.330;9.104;2024-03-02T03:54:39;16.90;;;11.10;;
3131;SDS011;62090;52.330;9.104;2024-03-02T03:57:10;16.37;;;10.40;;
3131;SDS011;62090;52.330;9.104;2024-03-02T03:59:40;18.43;;;11.27;;
3131;SDS011;62090;52.330;9.104;2024-03-02T04:02:11;17.47;;;11.77;;
3131;SDS011;62090;52.330;9.104;2024-03-02T04:04:41;19.10;;;12.20;;
3131;SDS011;62090;52.330;9.104;2024-03-02T04:07:14;19.30;;;11.73;;
3131;SDS011;62090;52.330;9.104;2024-03-02T04:09:44;16.73;;;11.37;;
3131;SDS011;62090;52.330;9.104;2024-03-02T04:12:14;18.40;;;12.17;;
3131;SDS011;62090;52.330;9.104;2024-03-02T04:14:44;18.60;;;12.50;;
3131;SDS011;62090;52.330;9.104;2024-03-02T04:17:14;17.93;;;11.93;;
3131;SDS011;62090;52.330;9.104;2024-03-02T04:19:44;20.67;;;11.20;;
3131;SDS011;62090;52.330;9.104;2024-03-02T04:22:17;15.90;;;11.17;;
3131;SDS011;62090;52.330;9.104;2024-03-02T04:24:51;16.37;;;11.20;;
3131;SDS011;62090;52.330;9.104;2024-03-02T04:27:21;19.03;;;12.43;;
3131;SDS011;62090;52.330;9.104;2024-03-02T04:29:51;18.60;;;11.90;;
3131;SDS011;62090;52.330;9.104;2024-03-02T04:32:21;17.60;;;10.77;;
3131;SDS011;62090;52.330;9.104;2024-03-02T04:34:51;21.40;;;13.07;;
3131;SDS011;62090;52.330;9.104;2024-03-02T04:37:24;17.87;;;12.50;;
3131;SDS011;62090;52.330;9.104;2024-03-02T04:39:54;22.40;;;12.77;;
3131;SDS011;62090;52.330;9.104;2024-03-02T04:42:24;20.47;;;13.40;;
3131;SDS011;62090;52.330;9.104;2024-03-02T04:44:54;22.73;;;13.60;;
3131;SDS011;62090;52.330;9.104;2024-03-02T04:47:24;20.70;;;12.80;;
3131;SDS011;62090;52.330;9.104;2024-03-02T04:49:54;15.30;;;11.30;;
3131;SDS011;62090;52.330;9.104;2024-03-02T04:52:27;18.93;;;11.50;;
3131;SDS011;62090;52.330;9.104;2024-03-02T04:54:57;17.90;;;11.53;;
3131;SDS011;62090;52.330;9.104;2024-03-02T04:57:51;23.43;;;13.43;;
3131;SDS011;62090;52.330;9.104;2024-03-02T05:00:23;22.67;;;14.63;;
3131;SDS011;62090;52.330;9.104;2024-03-02T05:02:53;21.67;;;13.90;;
3131;SDS011;62090;52.330;9.104;2024-03-02T05:05:23;24.20;;;14.40;;
3131;SDS011;62090;52.330;9.104;2024-03-02T05:07:56;23.57;;;14.27;;
3131;SDS011;62090;52.330;9.104;2024-03-02T05:10:26;22.13;;;13.77;;
3131;SDS011;62090;52.330;9.104;2024-03-02T05:12:56;23.27;;;14.07;;
3131;SDS011;62090;52.330;9.104;2024-03-02T05:15:27;20.63;;;13.13;;
3131;SDS011;62090;52.330;9.104;2024-03-02T05:17:57;28.87;;;14.80;;
3131;SDS011;62090;52.330;9.104;2024-03-02T05:20:29;24.70;;;13.40;;
3131;SDS011;62090;52.330;9.104;2024-03-02T05:23:02;20.90;;;13.00;;
3131;SDS011;62090;52.330;9.104;2024-03-02T05:25:32;25.70;;;15.13;;
3131;SDS011;62090;52.330;9.104;2024-03-02T05:28:02;22.50;;;12.97;;
3131;SDS011;62090;52.330;9.104;2024-03-02T05:30:33;23.67;;;13.70;;
3131;SDS011;62090;52.330;9.104;2024-03-02T05:33:03;22.73;;;13.67;;
3131;SDS011;62090;52.330;9.104;2024-03-02T05:35:33;23.13;;;13.70;;
3131;SDS011;62090;52.330;9.104;2024-03-02T05:38:06;21.13;;;13.77;;
3131;SDS011;62090;52.330;9.104;2024-03-02T05:40:36;25.30;;;14.17;;
3131;SDS011;62090;52.330;9.104;2024-03-02T05:43:06;23.97;;;13.63;;
3131;SDS011;62090;52.330;9.104;2024-03-02T05:45:36;24.77;;;14.90;;
3131;SDS011;62090;52.330;9.104;2024-03-02T05:48:07;30.97;;;14.27;;
3131;SDS011;62090;52.330;9.104;2024-03-02T05:50:38;23.03;;;14.50;;
3131;SDS011;62090;52.330;9.104;2024-03-02T05:53:10;27.63;;;15.63;;
3131;SDS011;62090;52.330;9.104;2024-03-02T05:55:42;25.33;;;15.20;;
3131;SDS011;62090;52.330;9.104;2024-03-02T05:58:12;23.20;;;14.47;;
3131;SDS011;62090;52.330;9.104;2024-03-02T06:00:54;23.00;;;13.67;;
3131;SDS011;62090;52.330;9.104;2024-03-02T06:03:24;26.87;;;14.60;;
3131;SDS011;62090;52.330;9.104;2024-03-02T06:05:55;25.83;;;15.10;;
3131;SDS011;62090;52.330;9.104;2024-03-02T06:08:30;24.40;;;14.53;;
3131;SDS011;62090;52.330;9.104;2024-03-02T06:11:00;25.27;;;14.70;;
3131;SDS011;62090;52.330;9.104;2024-03-02T06:13:30;27.53;;;14.80;;
3131;SDS011;62090;52.330;9.104;2024-03-02T06:16:00;30.73;;;15.87;;
3131;SDS011;62090;52.330;9.104;2024-03-02T06:18:31;25.00;;;15.80;;
3131;SDS011;62090;52.330;9.104;2024-03-02T06:21:01;27.23;;;14.83;;
3131;SDS011;62090;52.330;9.104;2024-03-02T06:23:33;29.50;;;15.87;;
3131;SDS011;62090;52.330;9.104;2024-03-02T06:26:04;23.27;;;14.50;;
3131;SDS011;62090;52.330;9.104;2024-03-02T06:28:34;38.90;;;15.93;;
3131;SDS011;62090;52.330;9.104;2024-03-02T06:31:04;28.37;;;15.37;;
3131;SDS011;62090;52.330;9.104;2024-03-02T06:33:34;24.30;;;14.47;;
3131;SDS011;62090;52.330;9.104;2024-03-02T06:36:05;28.20;;;16.80;;
3131;SDS011;62090;52.330;9.104;2024-03-02T06:38:39;29.23;;;16.30;;
3131;SDS011;62090;52.330;9.104;2024-03-02T06:41:09;31.37;;;16.50;;
3131;SDS011;62090;52.330;9.104;2024-03-02T06:43:39;28.30;;;16.23;;
3131;SDS011;62090;52.330;9.104;2024-03-02T06:46:09;29.67;;;15.93;;
3131;SDS011;62090;52.330;9.104;2024-03-02T06:48:41;29.33;;;15.27;;
3131;SDS011;62090;52.330;9.104;2024-03-02T06:51:11;26.07;;;16.10;;
3131;SDS011;62090;52.330;9.104;2024-03-02T06:53:45;32.03;;;17.10;;
3131;SDS011;62090;52.330;9.104;2024-03-02T06:56:15;27.40;;;16.70;;
3131;SDS011;62090;52.330;9.104;2024-03-02T06:58:45;27.67;;;14.37;;
3131;SDS011;62090;52.330;9.104;2024-03-02T07:01:15;27.20;;;14.93;;
3131;SDS011;62090;52.330;9.104;2024-03-02T07:03:50;22.97;;;12.63;;
3131;SDS011;62090;52.330;9.104;2024-03-02T07:06:20;26.10;;;15.53;;
3131;SDS011;62090;52.330;9.104;2024-03-02T07:08:53;23.40;;;14.37;;
3131;SDS011;62090;52.330;9.104;2024-03-02T07:11:23;27.20;;;15.83;;
3131;SDS011;62090;52.330;9.104;2024-03-02T07:13:53;23.03;;;13.67;;
3131;SDS011;62090;52.330;9.104;2024-03-02T07:16:23;25.83;;;14.40;;
3131;SDS011;62090;52.330;9.104;2024-03-02T07:19:01;29.03;;;15.73;;
3131;SDS011;62090;52.330;9.104;2024-03-02T07:21:31;27.67;;;14.77;;
3131;SDS011;62090;52.330;9.104;2024-03-02T07:24:08;26.00;;;15.77;;
3131;SDS011;62090;52.330;9.104;2024-03-02T07:26:40;23.93;;;14.77;;
3131;SDS011;62090;52.330;9.104;2024-03-02T07:29:13;26.97;;;16.27;;
3131;SDS011;62090;52.330;9.104;2024-03-02T07:31:43;27.13;;;14.80;;
3131;SDS011;62090;52.330;9.104;2024-03-02T07:34:13;22.60;;;14.10;;
3131;SDS011;62090;52.330;9.104;2024-03-02T07:36:43;24.30;;;14.67;;
3131;SDS011;62090;52.330;9.104;2024-03-02T07:39:16;36.43;;;19.93;;
3131;SDS011;62090;52.330;9.104;2024-03-02T07:41:46;27.30;;;17.00;;
3131;SDS011;62090;52.330;9.104;2024-03-02T07:44:17;22.10;;;12.43;;
3131;SDS011;62090;52.330;9.104;2024-03-02T07:46:47;21.40;;;12.63;;
3131;SDS011;62090;52.330;9.104;2024-03-02T07:49:19;22.47;;;12.73;;
3131;SDS011;62090;52.330;9.104;2024-03-02T07:51:49;26.50;;;13.93;;
3131;SDS011;62090;52.330;9.104;2024-03-02T07:54:21;21.73;;;13.57;;
3131;SDS011;62090;52.330;9.104;2024-03-02T07:56:52;20.33;;;12.90;;
3131;SDS011;62090;52.330;9.104;2024-03-02T07:59:22;24.27;;;14.93;;
3131;SDS011;62090;52.330;9.104;2024-03-02T08:01:52;23.20;;;14.43;;
3131;SDS011;62090;52.330;9.104;2024-03-02T08:04:22;21.00;;;12.17;;
3131;SDS011;62090;52.330;9.104;2024-03-02T08:06:52;27.30;;;13.70;;
3131;SDS011;62090;52.330;9.104;2024-03-02T08:09:25;25.67;;;14.10;;
3131;SDS011;62090;52.330;9.104;2024-03-02T08:11:55;18.80;;;12.53;;
3131;SDS011;62090;52.330;9.104;2024-03-02T08:14:26;24.03;;;13.53;;
3131;SDS011;62090;52.330;9.104;2024-03-02T08:16:56;22.70;;;14.10;;
3131;SDS011;62090;52.330;9.104;2024-03-02T08:19:28;23.20;;;13.53;;
3131;SDS011;62090;52.330;9.104;2024-03-02T08:21:58;22.37;;;13.80;;
3131;SDS011;62090;52.330;9.104;2024-03-02T08:24:31;22.63;;;12.70;;
3131;SDS011;62090;52.330;9.104;2024-03-02T08:27:01;21.87;;;12.00;;
3131;SDS011;62090;52.330;9.104;2024-03-02T08:29:32;18.77;;;11.63;;
3131;SDS011;62090;52.330;9.104;2024-03-02T08:32:02;20.90;;;11.80;;
3131;SDS011;62090;52.330;9.104;2024-03-02T08:34:32;22.27;;;13.30;;
3131;SDS011;62090;52.330;9.104;2024-03-02T08:37:03;19.43;;;11.70;;
3131;SDS011;62090;52.330;9.104;2024-03-02T08:39:36;20.13;;;11.53;;
3131;SDS011;62090;52.330;9.104;2024-03-02T08:42:06;18.57;;;11.67;;
3131;SDS011;62090;52.330;9.104;2024-03-02T08:44:36;21.20;;;11.40;;
3131;SDS011;62090;52.330;9.104;2024-03-02T08:47:06;23.13;;;11.33;;
3131;SDS011;62090;52.330;9.104;2024-03-02T08:49:36;25.00;;;12.37;;
3131;SDS011;62090;52.330;9.104;2024-03-02T08:52:06;19.40;;;11.30;;
3131;SDS011;62090;52.330;9.104;2024-03-02T08:54:39;21.30;;;11.80;;
3131;SDS011;62090;52.330;9.104;2024-03-02T08:57:09;19.80;;;11.20;;
3131;SDS011;62090;52.330;9.104;2024-03-02T08:59:40;16.20;;;10.60;;
3131;SDS011;62090;52.330;9.104;2024-03-02T09:02:10;19.50;;;11.57;;
3131;SDS011;62090;52.330;9.104;2024-03-02T09:04:40;20.50;;;10.63;;
3131;SDS011;62090;52.330;9.104;2024-03-02T09:07:10;17.50;;;11.60;;
3131;SDS011;62090;52.330;9.104;2024-03-02T09:09:43;19.53;;;11.90;;
3131;SDS011;62090;52.330;9.104;2024-03-02T09:12:13;18.60;;;11.30;;
3131;SDS011;62090;52.330;9.104;2024-03-02T09:14:43;19.57;;;11.23;;
3131;SDS011;62090;52.330;9.104;2024-03-02T09:17:13;16.03;;;8.90;;
3131;SDS011;62090;52.330;9.104;2024-03-02T09:19:43;17.90;;;10.00;;
3131;SDS011;62090;52.330;9.104;2024-03-02T09:22:14;16.20;;;9.90;;
3131;SDS011;62090;52.330;9.104;2024-03-02T09:24:46;17.13;;;10.53;;
3131;SDS011;62090;52.330;9.104;2024-03-02T09:27:17;18.30;;;10.70;;
3131;SDS011;62090;52.330;9.104;2024-03-02T09:29:47;16.07;;;8.57;;
3131;SDS011;62090;52.330;9.104;2024-03-02T09:32:17;14.53;;;9.00;;
3131;SDS011;62090;52.330;9.104;2024-03-02T09:34:47;15.90;;;7.43;;
3131;SDS011;62090;52.330;9.104;2024-03-02T09:37:19;17.90;;;8.60;;
3131;SDS011;62090;52.330;9.104;2024-03-02T09:39:51;14.87;;;8.27;;
3131;SDS011;62090;52.330;9.104;2024-03-02T09:42:21;12.17;;;7.30;;
3131;SDS011;62090;52.330;9.104;2024-03-02T09:44:52;10.23;;;7.20;;
3131;SDS011;62090;52.330;9.104;2024-03-02T09:47:22;12.20;;;7.47;;
3131;SDS011;62090;52.330;9.104;2024-03-02T09:49:53;11.37;;;7.67;;
3131;SDS011;62090;52.330;9.104;2024-03-02T09:52:23;14.00;;;7.23;;
3131;SDS011;62090;52.330;9.104;2024-03-02T09:54:55;13.87;;;7.90;;
3131;SDS011;62090;52.330;9.104;2024-03-02T09:57:26;14.30;;;7.80;;
3131;SDS011;62090;52.330;9.104;2024-03-02T09:59:56;11.53;;;7.10;;
3131;SDS011;62090;52.330;9.104;2024-03-02T10:02:26;13.30;;;7.30;;
3131;SDS011;62090;52.330;9.104;2024-03-02T10:04:56;10.33;;;6.93;;
3131;SDS011;62090;52.330;9.104;2024-03-02T10:07:26;13.50;;;7.03;;
3131;SDS011;62090;52.330;9.104;2024-03-02T10:10:00;12.03;;;7.10;;
3131;SDS011;62090;52.330;9.104;2024-03-02T10:12:43;10.37;;;6.77;;
3131;SDS011;62090;52.330;9.104;2024-03-02T10:15:13;9.40;;;5.90;;
3131;SDS011;62090;52.330;9.104;2024-03-02T10:17:45;12.63;;;6.07;;
3131;SDS011;62090;52.330;9.104;2024-03-02T10:20:21;14.30;;;6.63;;
3131;SDS011;62090;52.330;9.104;2024-03-02T10:22:53;9.63;;;6.10;;
3131;SDS011;62090;52.330;9.104;2024-03-02T10:25:32;9.80;;;5.73;;
3131;SDS011;62090;52.330;9.104;2024-03-02T10:28:16;9.90;;;6.10;;
3131;SDS011;62090;52.330;9.104;2024-03-02T10:30:47;12.60;;;5.90;;
3131;SDS011;62090;52.330;9.104;2024-03-02T10:33:20;12.70;;;6.70;;
3131;SDS011;62090;52.330;9.104;2024-03-02T10:35:50;11.07;;;6.70;;
3131;SDS011;62090;52.330;9.104;2024-03-02T10:38:20;15.90;;;7.20;;
3131;SDS011;62090;52.330;9.104;2024-03-02T10:40:53;12.17;;;6.53;;
3131;SDS011;62090;52.330;9.104;2024-03-02T10:43:25;14.20;;;7.17;;
3131;SDS011;62090;52.330;9.104;2024-03-02T10:45:55;15.03;;;6.27;;
3131;SDS011;62090;52.330;9.104;2024-03-02T10:48:26;11.57;;;6.30;;
3131;SDS011;62090;52.330;9.104;2024-03-02T10:50:57;14.07;;;7.13;;
3131;SDS011;62090;52.330;9.104;2024-03-02T10:53:29;11.73;;;6.97;;
3131;SDS011;62090;52.330;9.104;2024-03-02T10:56:02;13.73;;;7.17;;
3131;SDS011;62090;52.330;9.104;2024-03-02T10:58:37;11.50;;;5.73;;
3131;SDS011;62090;52.330;9.104;2024-03-02T11:01:07;13.77;;;6.30;;
3131;SDS011;62090;52.330;9.104;2024-03-02T11:03:40;48.40;;;8.00;;
3131;SDS011;62090;52.330;9.104;2024-03-02T11:06:11;22.30;;;6.37;;
3131;SDS011;62090;52.330;9.104;2024-03-02T11:08:43;8.93;;;5.37;;
3131;SDS011;62090;52.330;9.104;2024-03-02T11:11:22;14.27;;;6.00;;
3131;SDS011;62090;52.330;9.104;2024-03-02T11:13:59;10.00;;;5.37;;
3131;SDS011;62090;52.330;9.104;2024-03-02T11:16:36;8.10;;;5.07;;
3131;SDS011;62090;52.330;9.104;2024-03-02T11:19:08;9.43;;;4.90;;
3131;SDS011;62090;52.330;9.104;2024-03-02T11:21:43;19.90;;;6.27;;
3131;SDS011;62090;52.330;9.104;2024-03-02T11:24:32;15.13;;;5.47;;
3131;SDS011;62090;52.330;9.104;2024-03-02T11:27:07;125.73;;;16.43;;
3131;SDS011;62090;52.330;9.104;2024-03-02T11:29:42;9.73;;;5.30;;
3131;SDS011;62090;52.330;9.104;2024-03-02T11:32:14;9.33;;;5.20;;
3131;SDS011;62090;52.330;9.104;2024-03-02T11:34:48;8.67;;;5.23;;
3131;SDS011;62090;52.330;9.104;2024-03-02T11:37:19;16.53;;;5.00;;
3131;SDS011;62090;52.330;9.104;2024-03-02T11:39:50;10.77;;;5.50;;
3131;SDS011;62090;52.330;9.104;2024-03-02T11:42:23;7.13;;;4.70;;
3131;SDS011;62090;52.330;9.104;2024-03-02T11:44:55;9.00;;;4.57;;
3131;SDS011;62090;52.330;9.104;2024-03-02T11:47:26;8.40;;;4.88;;
3131;SDS011;62090;52.330;9.104;2024-03-02T11:50:05;8.30;;;4.80;;
3131;SDS011;62090;52.330;9.104;2024-03-02T11:52:36;6.40;;;3.30;;
3131;SDS011;62090;52.330;9.104;2024-03-02T11:55:09;4.63;;;3.20;;
3131;SDS011;62090;52.330;9.104;2024-03-02T11:57:43;3.80;;;2.87;;
3131;SDS011;62090;52.330;9.104;2024-03-02T12:00:16;5.00;;;3.30;;
3131;SDS011;62090;52.330;9.104;2024-03-02T12:02:47;5.33;;;3.47;;
3131;SDS011;62090;52.330;9.104;2024-03-02T12:05:29;4.30;;;3.00;;
3131;SDS011;62090;52.330;9.104;2024-03-02T12:08:00;8.53;;;2.97;;
3131;SDS011;62090;52.330;9.104;2024-03-02T12:10:31;4.30;;;2.90;;
3131;SDS011;62090;52.330;9.104;2024-03-02T12:13:05;4.47;;;2.83;;
3131;SDS011;62090;52.330;9.104;2024-03-02T12:15:38;6.50;;;3.87;;
3131;SDS011;62090;52.330;9.104;2024-03-02T12:18:09;5.83;;;3.20;;
3131;SDS011;62090;52.330;9.104;2024-03-02T12:20:39;37.90;;;7.07;;
3131;SDS011;62090;52.330;9.104;2024-03-02T12:23:09;20.00;;;5.97;;
3131;SDS011;62090;52.330;9.104;2024-03-02T12:25:41;54.27;;;8.53;;
3131;SDS011;62090;52.330;9.104;2024-03-02T12:28:14;15.80;;;2.73;;
3131;SDS011;62090;52.330;9.104;2024-03-02T12:30:45;12.37;;;3.27;;
3131;SDS011;62090;52.330;9.104;2024-03-02T12:33:16;11.50;;;2.97;;
3131;SDS011;62090;52.330;9.104;2024-03-02T12:35:46;5.93;;;3.43;;
3131;SDS011;62090;52.330;9.104;2024-03-02T12:38:18;4.40;;;3.13;;
3131;SDS011;62090;52.330;9.104;2024-03-02T12:40:48;6.10;;;3.60;;
3131;SDS011;62090;52.330;9.104;2024-03-02T12:43:21;7.23;;;3.67;;
3131;SDS011;62090;52.330;9.104;2024-03-02T12:45:52;5.63;;;2.70;;
3131;SDS011;62090;52.330;9.104;2024-03-02T12:48:23;6.57;;;3.93;;
3131;SDS011;62090;52.330;9.104;2024-03-02T12:50:54;9.50;;;3.70;;
3131;SDS011;62090;52.330;9.104;2024-03-02T12:53:24;4.70;;;3.10;;
3131;SDS011;62090;52.330;9.104;2024-03-02T12:55:54;7.80;;;4.03;;
3131;SDS011;62090;52.330;9.104;2024-03-02T12:58:28;7.83;;;3.83;;
3131;SDS011;62090;52.330;9.104;2024-03-02T13:01:06;6.33;;;3.57;;
3131;SDS011;62090;52.330;9.104;2024-03-02T13:03:38;6.10;;;3.43;;
3131;SDS011;62090;52.330;9.104;2024-03-02T13:06:08;5.40;;;3.40;;
3131;SDS011;62090;52.330;9.104;2024-03-02T13:08:38;5.83;;;3.90;;
3131;SDS011;62090;52.330;9.104;2024-03-02T13:11:08;5.23;;;3.70;;
3131;SDS011;62090;52.330;9.104;2024-03-02T13:13:42;7.60;;;3.27;;
3131;SDS011;62090;52.330;9.104;2024-03-02T13:16:12;5.87;;;3.67;;
3131;SDS011;62090;52.330;9.104;2024-03-02T13:18:44;5.43;;;3.20;;
3131;SDS011;62090;52.330;9.104;2024-03-02T13:21:14;6.33;;;3.70;;
3131;SDS011;62090;52.330;9.104;2024-03-02T13:23:44;5.30;;;2.97;;
3131;SDS011;62090;52.330;9.104;2024-03-02T13:26:14;5.40;;;3.97;;
3131;SDS011;62090;52.330;9.104;2024-03-02T13:28:47;4.93;;;3.03;;
3131;SDS011;62090;52.330;9.104;2024-03-02T13:31:17;5.80;;;3.03;;
3131;SDS011;62090;52.330;9.104;2024-03-02T13:33:47;5.27;;;3.20;;
3131;SDS011;62090;52.330;9.104;2024-03-02T13:36:17;3.80;;;3.10;;
3131;SDS011;62090;52.330;9.104;2024-03-02T13:38:47;4.70;;;3.00;;
3131;SDS011;62090;52.330;9.104;2024-03-02T13:41:18;5.10;;;3.43;;
3131;SDS011;62090;52.330;9.104;2024-03-02T13:43:50;5.30;;;3.70;;
3131;SDS011;62090;52.330;9.104;2024-03-02T13:46:20;7.20;;;3.10;;
3131;SDS011;62090;52.330;9.104;2024-03-02T13:48:50;4.83;;;3.00;;
3131;SDS011;62090;52.330;9.104;2024-03-02T13:51:23;4.60;;;3.40;;
3131;SDS011;62090;52.330;9.104;2024-03-02T13:53:54;4.67;;;3.27;;
3131;SDS011;62090;52.330;9.104;2024-03-02T13:56:24;4.70;;;2.60;;
3131;SDS011;62090;52.330;9.104;2024-03-02T13:58:57;4.83;;;3.10;;
3131;SDS011;62090;52.330;9.104;2024-03-02T14:01:27;5.03;;;3.33;;
3131;SDS011;62090;52.330;9.104;2024-03-02T14:03:57;3.53;;;2.80;;
3131;SDS011;62090;52.330;9.104;2024-03-02T14:06:27;10.73;;;3.20;;
3131;SDS011;62090;52.330;9.104;2024-03-02T14:08:57;4.93;;;2.97;;
3131;SDS011;62090;52.330;9.104;2024-03-02T14:11:28;5.53;;;2.47;;
3131;SDS011;62090;52.330;9.104;2024-03-02T14:14:00;5.63;;;3.10;;
3131;SDS011;62090;52.330;9.104;2024-03-02T14:16:30;7.00;;;2.70;;
3131;SDS011;62090;52.330;9.104;2024-03-02T14:19:01;5.30;;;3.27;;
3131;SDS011;62090;52.330;9.104;2024-03-02T14:21:31;3.47;;;2.43;;
3131;SDS011;62090;52.330;9.104;2024-03-02T14:24:02;4.70;;;2.50;;
3131;SDS011;62090;52.330;9.104;2024-03-02T14:26:33;4.67;;;2.73;;
3131;SDS011;62090;52.330;9.104;2024-03-02T14:29:06;4.70;;;3.33;;
3131;SDS011;62090;52.330;9.104;2024-03-02T14:31:36;6.93;;;2.83;;
3131;SDS011;62090;52.330;9.104;2024-03-02T14:34:06;16.40;;;2.90;;
3131;SDS011;62090;52.330;9.104;2024-03-02T14:36:37;16.20;;;3.67;;
3131;SDS011;62090;52.330;9.104;2024-03-02T14:39:08;3.00;;;1.97;;
3131;SDS011;62090;52.330;9.104;2024-03-02T14:41:38;3.93;;;2.27;;
3131;SDS011;62090;52.330;9.104;2024-03-02T14:44:11;3.40;;;2.37;;
3131;SDS011;62090;52.330;9.104;2024-03-02T14:46:41;3.13;;;2.40;;
3131;SDS011;62090;52.330;9.104;2024-03-02T14:49:12;3.10;;;2.50;;
3131;SDS011;62090;52.330;9.104;2024-03-02T14:51:42;4.30;;;2.70;;
3131;SDS011;62090;52.330;9.104;2024-03-02T14:54:13;3.73;;;2.63;;
3131;SDS011;62090;52.330;9.104;2024-03-02T14:56:43;3.53;;;2.60;;
3131;SDS011;62090;52.330;9.104;2024-03-02T14:59:16;5.00;;;2.88;;
3131;SDS011;62090;52.330;9.104;2024-03-02T15:01:46;4.10;;;2.57;;
3131;SDS011;62090;52.330;9.104;2024-03-02T15:04:16;7.00;;;3.70;;
3131;SDS011;62090;52.330;9.104;2024-03-02T15:06:48;5.40;;;3.40;;
3131;SDS011;62090;52.330;9.104;2024-03-02T15:09:18;5.60;;;2.67;;
3131;SDS011;62090;52.330;9.104;2024-03-02T15:11:48;4.30;;;1.90;;